Time;durP1;ratioP1;P1;durP2;ratioP2;P2;SDS_P1;SDS_P2;PMS_P1;PMS_P2;Temp;Humidity;BMP_temperature;BMP_pressure;BME280_temperature;BME280_humidity;BME280_pressure;Samples;Min_cycle;Max_cycle;Signal;HPM_P1;HPM_P2
2023/10/14 00:01:07;;;;;;;19.73;10.35;;;11.10;99.90;;;;;;5048737;28;20052;-78
2023/10/14 00:03:33;;;;;;;17.58;11.52;;;11.10;99.90;;;;;;5052846;28;20082;-78
2023/10/14 00:06:00;;;;;;;16.48;10.50;;;11.10;99.90;;;;;;5053105;28;20021;-78
2023/10/14 00:08:31;;;;;;;15.45;11.57;;;11.10;99.90;;;;;;5052991;28;20029;-83
2023/10/14 00:11:00;;;;;;;23.67;10.35;;;11.10;99.90;;;;;;5046223;28;20009;-78
2023/10/14 00:13:30;;;;;;;20.17;10.00;;;11.00;99.90;;;;;;5058708;28;20061;-78
2023/10/14 00:16:00;;;;;;;19.80;9.98;;;11.00;99.90;;;;;;5051797;28;20047;-84
2023/10/14 00:18:26;;;;;;;18.38;11.68;;;11.00;99.90;;;;;;5051845;28;20025;-83
2023/10/14 00:20:53;;;;;;;20.63;11.20;;;11.00;99.90;;;;;;5052408;28;20094;-79
2023/10/14 00:23:23;;;;;;;22.42;12.90;;;11.00;99.90;;;;;;5051412;28;20021;-78
2023/10/14 00:25:49;;;;;;;18.20;12.13;;;10.90;99.90;;;;;;5051879;28;20020;-83
2023/10/14 00:28:19;;;;;;;16.85;11.85;;;10.80;99.90;;;;;;5051973;28;20033;-78
2023/10/14 00:30:46;;;;;;;29.30;12.68;;;10.80;99.90;;;;;;5038237;28;20021;-78
2023/10/14 00:33:12;;;;;;;24.10;13.75;;;10.70;99.90;;;;;;5051450;28;20029;-83
2023/10/14 00:35:40;;;;;;;14.55;11.90;;;10.70;99.90;;;;;;5051271;28;20025;-78
2023/10/14 00:38:10;;;;;;;20.95;12.05;;;10.60;99.90;;;;;;5051475;28;20021;-78
2023/10/14 00:40:37;;;;;;;17.30;12.20;;;10.70;99.90;;;;;;5055388;28;20029;-78
2023/10/14 00:43:04;;;;;;;24.50;12.20;;;10.70;99.90;;;;;;5049960;28;20475;-83
2023/10/14 00:45:30;;;;;;;16.05;10.13;;;10.70;99.90;;;;;;5051197;28;20044;-84
2023/10/14 00:47:59;;;;;;;19.70;10.50;;;10.60;99.90;;;;;;5057897;28;20045;-83
2023/10/14 00:50:35;;;;;;;15.90;9.35;;;10.60;99.90;;;;;;5055341;28;20112;-82
2023/10/14 00:53:05;;;;;;;22.20;11.15;;;10.70;99.90;;;;;;5054999;28;20033;-83
2023/10/14 00:58:12;;;;;;;16.58;9.75;;;10.60;99.90;;;;;;5056474;28;20029;-78
2023/10/14 01:00:46;;;;;;;14.93;10.15;;;10.60;99.90;;;;;;5054803;28;20048;-83
2023/10/14 01:03:15;;;;;;;14.77;9.82;;;10.60;99.90;;;;;;5051255;28;20024;-78
2023/10/14 01:05:40;;;;;;;13.25;8.40;;;10.60;99.90;;;;;;5060041;28;20024;-84
2023/10/14 01:08:11;;;;;;;11.23;8.05;;;10.60;99.90;;;;;;5044373;28;20433;-78
2023/10/14 01:10:38;;;;;;;14.20;9.00;;;10.60;99.90;;;;;;5054768;28;20067;-83
2023/10/14 01:13:13;;;;;;;15.30;9.18;;;10.60;99.90;;;;;;5061399;28;20143;-83
2023/10/14 01:15:49;;;;;;;14.85;8.15;;;10.60;99.90;;;;;;5055897;28;20044;-78
2023/10/14 01:18:14;;;;;;;13.75;9.57;;;10.60;99.90;;;;;;5053462;28;20032;-78
2023/10/14 01:20:42;;;;;;;14.52;9.25;;;10.50;99.90;;;;;;5054441;28;20033;-83
2023/10/14 01:23:08;;;;;;;15.10;9.05;;;10.40;99.90;;;;;;5055574;28;20025;-78
2023/10/14 01:25:43;;;;;;;12.30;9.15;;;10.40;99.90;;;;;;5054357;28;20146;-78
2023/10/14 01:28:12;;;;;;;16.80;9.80;;;10.40;99.90;;;;;;5055927;28;20175;-83
2023/10/14 01:31:25;;;;;;;15.32;9.73;;;10.40;99.90;;;;;;5060377;28;20013;-83
2023/10/14 01:33:51;;;;;;;13.30;8.63;;;10.30;99.90;;;;;;5054420;28;20033;-83
2023/10/14 01:36:17;;;;;;;13.52;8.45;;;10.30;99.90;;;;;;5054798;28;20467;-84
2023/10/14 01:38:57;;;;;;;15.23;8.68;;;10.20;99.90;;;;;;5058349;28;20066;-83
2023/10/14 01:41:23;;;;;;;18.38;8.88;;;10.20;99.90;;;;;;5059214;28;20045;-78
2023/10/14 01:43:49;;;;;;;12.20;7.30;;;10.20;99.90;;;;;;5054351;28;20051;-78
2023/10/14 01:46:18;;;;;;;13.35;7.35;;;10.30;99.90;;;;;;5055306;28;20104;-83
2023/10/14 01:48:45;;;;;;;13.15;7.00;;;10.30;99.90;;;;;;5058311;28;20474;-83
2023/10/14 01:51:10;;;;;;;14.15;7.60;;;10.30;99.90;;;;;;5053894;28;20021;-78
2023/10/14 01:53:38;;;;;;;11.52;7.45;;;10.30;99.90;;;;;;5054068;28;20500;-84
2023/10/14 01:56:06;;;;;;;14.15;7.68;;;10.20;99.90;;;;;;5055153;28;20017;-78
2023/10/14 01:58:36;;;;;;;17.73;7.22;;;10.20;99.90;;;;;;5053819;28;20024;-83
2023/10/14 02:03:47;;;;;;;13.90;6.43;;;10.30;99.90;;;;;;5055546;28;20116;-84
2023/10/14 02:06:17;;;;;;;12.55;6.78;;;10.30;99.90;;;;;;5054783;28;20088;-83
2023/10/14 02:08:48;;;;;;;11.25;6.70;;;10.30;99.90;;;;;;5053965;28;20029;-83
2023/10/14 02:11:20;;;;;;;11.10;6.45;;;10.30;99.90;;;;;;5049865;28;20070;-78
2023/10/14 02:13:46;;;;;;;13.70;5.85;;;10.40;99.90;;;;;;5055497;28;20106;-78
2023/10/14 02:16:11;;;;;;;16.15;6.38;;;10.40;99.90;;;;;;5058370;28;20060;-78
2023/10/14 02:18:37;;;;;;;10.45;6.00;;;10.40;99.90;;;;;;5052114;28;20498;-83
2023/10/14 02:21:16;;;;;;;12.60;6.07;;;10.50;99.90;;;;;;5055001;28;20032;-83
2023/10/14 02:23:45;;;;;;;13.75;6.50;;;10.60;99.90;;;;;;5054705;28;20042;-84
2023/10/14 02:26:22;;;;;;;10.77;6.20;;;10.50;99.90;;;;;;5054946;28;20021;-78
2023/10/14 02:28:49;;;;;;;10.65;5.95;;;10.60;99.90;;;;;;5053430;28;20498;-83
2023/10/14 02:31:20;;;;;;;11.73;6.95;;;10.60;99.90;;;;;;5054651;28;20059;-78
2023/10/14 02:33:47;;;;;;;12.63;6.80;;;10.50;99.90;;;;;;5053262;28;20486;-78
2023/10/14 02:36:17;;;;;;;10.85;6.72;;;10.50;99.90;;;;;;5053335;28;20033;-83
2023/10/14 02:38:54;;;;;;;13.80;6.60;;;10.50;99.90;;;;;;5053185;28;20087;-78
2023/10/14 02:41:21;;;;;;;17.67;7.05;;;10.50;99.90;;;;;;5054198;28;20099;-78
2023/10/14 02:43:51;;;;;;;15.30;7.07;;;10.50;99.90;;;;;;5053082;28;20021;-83
2023/10/14 02:46:22;;;;;;;14.57;7.18;;;10.50;99.90;;;;;;5053763;28;20028;-78
2023/10/14 02:48:53;;;;;;;13.05;6.63;;;10.50;99.90;;;;;;5053081;28;20406;-78
2023/10/14 02:54:35;;;;;;;11.25;7.78;;;10.40;99.90;;;;;;5057931;28;20029;-83
2023/10/14 02:57:12;;;;;;;12.00;6.35;;;10.40;99.90;;;;;;5054152;28;20024;-83
2023/10/14 03:04:44;;;;;;;12.18;6.38;;;10.60;99.90;;;;;;5053955;28;20021;-78
2023/10/14 03:07:10;;;;;;;15.65;5.75;;;10.60;99.90;;;;;;5052860;28;20037;-79
2023/10/14 03:09:35;;;;;;;11.43;5.65;;;10.70;99.90;;;;;;5053456;28;20039;-84
2023/10/14 03:12:01;;;;;;;12.35;5.18;;;10.70;99.90;;;;;;5053974;28;20036;-78
2023/10/14 03:14:29;;;;;;;8.98;5.15;;;10.80;99.90;;;;;;5052583;28;20017;-78
2023/10/14 03:16:54;;;;;;;9.38;5.22;;;10.80;99.90;;;;;;5038917;28;20026;-83
2023/10/14 03:19:20;;;;;;;9.15;5.20;;;10.90;99.90;;;;;;5052413;28;20505;-84
2023/10/14 03:22:01;;;;;;;9.93;4.35;;;10.90;99.90;;;;;;5052462;28;20505;-83
2023/10/14 03:24:30;;;;;;;9.02;5.13;;;11.00;99.90;;;;;;5049592;28;20066;-83
2023/10/14 03:27:04;;;;;;;8.77;5.50;;;10.90;99.90;;;;;;5056153;28;20071;-78
2023/10/14 03:29:29;;;;;;;10.43;6.03;;;10.90;99.90;;;;;;5052437;28;20111;-83
2023/10/14 03:31:56;;;;;;;8.52;5.70;;;10.70;99.90;;;;;;5052133;28;20108;-83
2023/10/14 03:34:30;;;;;;;9.57;5.97;;;10.50;99.90;;;;;;5057546;28;20021;-83
2023/10/14 03:37:00;;;;;;;8.82;5.63;;;10.30;99.90;;;;;;5051980;28;20021;-78
2023/10/14 03:39:46;;;;;;;10.45;5.50;;;10.20;99.90;;;;;;5052201;28;20029;-83
2023/10/14 03:42:13;;;;;;;12.75;6.18;;;10.10;99.90;;;;;;5056657;28;20066;-78
2023/10/14 03:44:42;;;;;;;11.98;6.40;;;10.00;99.90;;;;;;5056930;28;20083;-78
2023/10/14 03:47:16;;;;;;;11.40;6.20;;;9.90;99.90;;;;;;5053032;28;20041;-83
2023/10/14 03:49:45;;;;;;;9.27;5.38;;;9.90;99.90;;;;;;5052935;28;20072;-78
2023/10/14 03:52:12;;;;;;;11.50;5.22;;;9.80;99.90;;;;;;5051785;28;20029;-78
2023/10/14 03:54:42;;;;;;;10.93;4.97;;;9.80;99.90;;;;;;5053536;28;20025;-83
2023/10/14 03:57:14;;;;;;;7.72;5.03;;;9.80;99.90;;;;;;5057655;28;20021;-83
2023/10/14 03:59:42;;;;;;;12.63;5.60;;;9.70;99.90;;;;;;5053016;28;20041;-78
2023/10/14 04:02:08;;;;;;;10.48;4.75;;;9.70;99.90;;;;;;5051649;28;20094;-83
2023/10/14 04:04:36;;;;;;;13.43;5.22;;;9.70;99.90;;;;;;5063706;28;20025;-79
2023/10/14 04:09:44;;;;;;;10.10;5.53;;;9.60;99.90;;;;;;5052891;28;20078;-78
2023/10/14 04:12:12;;;;;;;10.60;5.32;;;9.60;99.90;;;;;;5054727;28;20024;-84
2023/10/14 04:14:40;;;;;;;12.07;5.47;;;9.50;99.90;;;;;;5051701;28;20123;-78
2023/10/14 04:17:21;;;;;;;12.20;5.20;;;9.50;99.90;;;;;;5051427;28;20021;-78
2023/10/14 04:19:53;;;;;;;11.48;6.18;;;9.40;99.90;;;;;;5051462;28;20064;-83
2023/10/14 04:30:42;;;;;;;9.10;4.72;;;9.30;99.90;;;;;;5054450;28;20031;-83
2023/10/14 04:35:56;;;;;;;11.30;5.60;;;9.20;99.90;;;;;;5040800;28;20387;-83
2023/10/14 04:38:28;;;;;;;7.88;4.75;;;9.20;99.90;;;;;;5051026;28;20013;-83
2023/10/14 04:40:54;;;;;;;10.73;4.38;;;9.20;99.90;;;;;;5058887;28;20072;-83
2023/10/14 04:43:49;;;;;;;8.07;5.15;;;9.10;99.90;;;;;;5051035;28;20132;-83
2023/10/14 04:48:37;;;;;;;10.73;4.80;;;9.10;99.90;;;;;;5052559;28;20456;-77
2023/10/14 04:51:07;;;;;;;9.77;5.40;;;9.10;99.90;;;;;;5051347;28;20112;-78
2023/10/14 04:53:33;;;;;;;11.48;5.43;;;9.10;99.90;;;;;;5043716;28;20029;-83
2023/10/14 04:56:04;;;;;;;11.82;5.35;;;9.10;99.90;;;;;;5045988;28;20447;-83
2023/10/14 04:58:32;;;;;;;9.82;5.35;;;9.10;99.90;;;;;;5057700;28;20158;-78
2023/10/14 05:01:03;;;;;;;10.52;5.43;;;9.20;99.90;;;;;;5050766;28;20052;-83
2023/10/14 05:03:29;;;;;;;12.52;4.88;;;9.20;99.90;;;;;;5052561;28;20230;-78
2023/10/14 05:06:14;;;;;;;11.55;5.13;;;9.20;99.90;;;;;;5053318;28;20055;-83
2023/10/14 05:08:55;;;;;;;13.10;6.05;;;9.40;99.90;;;;;;5057166;28;20021;-83
2023/10/14 05:11:25;;;;;;;12.10;5.78;;;9.50;99.90;;;;;;5041517;28;20032;-82
2023/10/14 05:17:02;;;;;;;10.88;6.25;;;9.70;99.90;;;;;;5052248;28;20414;-78
2023/10/14 05:19:41;;;;;;;13.07;6.20;;;9.70;99.90;;;;;;5050777;28;20028;-83
2023/10/14 05:22:11;;;;;;;10.77;6.28;;;9.80;99.90;;;;;;5050747;28;20036;-83
2023/10/14 05:24:39;;;;;;;6.22;4.05;;;9.80;99.90;;;;;;5059088;28;20027;-83
2023/10/14 05:27:06;;;;;;;8.38;3.85;;;9.70;99.90;;;;;;5055413;28;20626;-83
2023/10/14 05:29:34;;;;;;;6.53;4.50;;;9.60;99.90;;;;;;5050931;28;20056;-78
2023/10/14 05:32:10;;;;;;;9.80;5.07;;;9.40;99.90;;;;;;5053269;28;20494;-78
2023/10/14 05:34:36;;;;;;;9.48;4.85;;;9.30;99.90;;;;;;5054640;28;20022;-78
2023/10/14 05:37:01;;;;;;;8.75;5.43;;;9.30;99.90;;;;;;5054081;28;20054;-83
2023/10/14 05:39:27;;;;;;;11.27;5.90;;;9.20;99.90;;;;;;5055774;28;20071;-82
2023/10/14 05:41:59;;;;;;;12.35;6.68;;;9.20;99.90;;;;;;5053971;28;20052;-82
2023/10/14 05:44:28;;;;;;;9.90;5.85;;;9.30;99.90;;;;;;5054244;28;20020;-78
2023/10/14 05:46:55;;;;;;;11.02;6.35;;;9.40;99.90;;;;;;5054141;28;20063;-78
2023/10/14 05:49:24;;;;;;;11.77;6.85;;;9.40;99.90;;;;;;5055913;28;20029;-78
2023/10/14 05:51:53;;;;;;;14.45;5.82;;;9.50;99.90;;;;;;5041429;28;20021;-83
2023/10/14 05:54:22;;;;;;;14.02;6.60;;;9.50;99.90;;;;;;5055175;28;20409;-83
2023/10/14 05:56:51;;;;;;;11.07;5.13;;;9.60;99.90;;;;;;5058800;28;20489;-83
2023/10/14 05:59:17;;;;;;;10.15;6.03;;;9.60;99.90;;;;;;5055083;28;20531;-78
2023/10/14 06:01:46;;;;;;;12.68;5.70;;;9.70;99.90;;;;;;5054009;28;20029;-78
2023/10/14 06:04:15;;;;;;;11.05;5.97;;;9.80;99.90;;;;;;5054952;28;20053;-83
2023/10/14 06:06:41;;;;;;;13.15;7.13;;;9.90;99.90;;;;;;5066458;28;20067;-78
2023/10/14 06:09:10;;;;;;;13.00;6.80;;;10.00;99.90;;;;;;5053601;28;20703;-78
2023/10/14 06:11:37;;;;;;;14.57;7.18;;;10.20;99.90;;;;;;5054522;28;20028;-78
2023/10/14 06:14:03;;;;;;;13.73;7.15;;;10.40;99.90;;;;;;5053072;28;20029;-78
2023/10/14 06:16:31;;;;;;;10.25;6.65;;;10.50;99.90;;;;;;5053847;28;20116;-83
2023/10/14 06:18:57;;;;;;;19.27;8.20;;;10.70;99.90;;;;;;5053566;28;20028;-78
2023/10/14 06:21:27;;;;;;;14.93;7.78;;;10.90;99.90;;;;;;5053518;28;20037;-78
2023/10/14 06:23:55;;;;;;;19.67;9.05;;;11.20;99.90;;;;;;5054716;28;20021;-78
2023/10/14 06:26:21;;;;;;;16.13;9.13;;;11.50;99.90;;;;;;5062128;28;20063;-78
2023/10/14 06:28:49;;;;;;;25.20;9.48;;;11.90;99.90;;;;;;5056053;28;20020;-82
2023/10/14 06:31:18;;;;;;;15.85;8.43;;;12.20;99.90;;;;;;5053921;28;20025;-83
2023/10/14 06:33:45;;;;;;;13.77;7.72;;;12.50;99.90;;;;;;5054324;28;20017;-78
2023/10/14 06:36:14;;;;;;;13.90;7.60;;;12.60;99.90;;;;;;5052989;28;20049;-83
2023/10/14 06:38:44;;;;;;;13.98;7.68;;;12.80;99.90;;;;;;5053889;28;20048;-77
2023/10/14 06:41:11;;;;;;;16.23;7.90;;;13.00;99.90;;;;;;5053274;28;20043;-78
2023/10/14 06:43:38;;;;;;;13.98;7.70;;;13.20;99.90;;;;;;5052865;28;20379;-78
2023/10/14 06:46:05;;;;;;;15.45;8.35;;;13.40;99.90;;;;;;5052742;28;20548;-78
2023/10/14 06:48:32;;;;;;;17.55;9.93;;;13.60;99.90;;;;;;5050265;28;20442;-78
2023/10/14 06:50:59;;;;;;;16.38;10.07;;;13.80;99.90;;;;;;5054056;28;20024;-78
2023/10/14 06:53:28;;;;;;;16.52;8.60;;;14.00;99.90;;;;;;5042902;28;20017;-78
2023/10/14 06:55:54;;;;;;;20.55;11.23;;;14.20;99.90;;;;;;5055263;28;20498;-83
2023/10/14 06:58:21;;;;;;;16.40;10.88;;;14.40;99.90;;;;;;5041910;28;20025;-83
2023/10/14 07:00:48;;;;;;;17.90;10.60;;;14.50;99.90;;;;;;5039280;28;20045;-84
2023/10/14 07:03:14;;;;;;;20.50;11.50;;;14.70;99.90;;;;;;5059654;28;20486;-83
2023/10/14 07:05:59;;;;;;;22.95;11.35;;;14.80;99.90;;;;;;5053138;28;20021;-83
2023/10/14 07:08:27;;;;;;;21.35;12.75;;;15.00;99.90;;;;;;5058667;28;20021;-79
2023/10/14 07:10:55;;;;;;;20.10;12.23;;;15.20;99.90;;;;;;5050256;28;20028;-79
2023/10/14 07:13:22;;;;;;;19.35;12.38;;;15.30;99.90;;;;;;5050493;28;20021;-79
2023/10/14 07:15:49;;;;;;;20.95;12.32;;;15.50;99.90;;;;;;5050113;28;20079;-84
2023/10/14 07:18:23;;;;;;;23.27;12.27;;;15.70;99.90;;;;;;5054156;28;20020;-79
2023/10/14 07:20:57;;;;;;;21.25;12.95;;;15.70;99.90;;;;;;5050208;28;20505;-79
2023/10/14 07:23:22;;;;;;;23.15;11.80;;;15.90;99.90;;;;;;5050328;28;20027;-79
2023/10/14 07:25:48;;;;;;;22.30;11.65;;;16.00;99.90;;;;;;5050421;28;20032;-79
2023/10/14 07:28:14;;;;;;;19.60;11.88;;;16.20;99.90;;;;;;5050911;28;20534;-78
2023/10/14 07:30:48;;;;;;;23.40;11.82;;;16.30;99.90;;;;;;5061529;28;20064;-84
2023/10/14 07:33:14;;;;;;;20.30;11.10;;;16.40;99.90;;;;;;5051540;28;20478;-84
2023/10/14 07:35:40;;;;;;;15.02;11.45;;;16.50;99.90;;;;;;5052302;28;20013;-84
2023/10/14 07:38:06;;;;;;;16.90;10.63;;;16.70;99.90;;;;;;5053245;28;20028;-84
2023/10/14 07:40:34;;;;;;;21.63;11.40;;;16.80;99.90;;;;;;5052203;28;20182;-79
2023/10/14 07:43:05;;;;;;;19.15;10.75;;;16.90;99.90;;;;;;5057194;28;20025;-84
2023/10/14 07:45:35;;;;;;;27.90;11.40;;;17.10;99.90;;;;;;5052051;28;20017;-79
2023/10/14 07:48:08;;;;;;;16.73;10.85;;;17.20;99.90;;;;;;5062323;28;20515;-79
2023/10/14 07:50:38;;;;;;;18.52;10.43;;;17.30;99.90;;;;;;5051982;28;20025;-79
2023/10/14 07:53:07;;;;;;;18.33;11.07;;;17.40;99.90;;;;;;5051683;28;20021;-79
2023/10/14 07:55:47;;;;;;;16.52;10.57;;;17.50;99.90;;;;;;5053303;28;20032;-84
2023/10/14 07:58:14;;;;;;;17.70;10.00;;;17.70;99.90;;;;;;5052735;28;20110;-78
2023/10/14 08:00:48;;;;;;;18.65;10.70;;;17.80;99.90;;;;;;5051981;28;20029;-78
2023/10/14 08:03:16;;;;;;;20.30;10.85;;;18.00;99.90;;;;;;5039831;28;20020;-79
2023/10/14 08:05:44;;;;;;;21.20;10.27;;;18.20;99.90;;;;;;5053303;28;20399;-85
2023/10/14 08:08:11;;;;;;;12.98;9.60;;;18.30;99.90;;;;;;5052756;28;20083;-85
2023/10/14 08:10:42;;;;;;;17.70;10.27;;;18.40;99.90;;;;;;5051363;28;20025;-85
2023/10/14 08:13:18;;;;;;;14.17;9.33;;;18.60;99.90;;;;;;5051676;28;20020;-79
2023/10/14 08:15:44;;;;;;;16.67;9.32;;;18.70;99.90;;;;;;5052593;28;20021;-85
2023/10/14 08:18:12;;;;;;;12.60;9.18;;;18.90;99.90;;;;;;5049980;28;20031;-83
2023/10/14 08:20:42;;;;;;;16.73;10.27;;;19.00;99.90;;;;;;5051202;28;20029;-77
2023/10/14 08:23:10;;;;;;;18.10;9.48;;;19.10;99.90;;;;;;5056891;28;20043;-77
2023/10/14 08:25:38;;;;;;;16.15;9.75;;;19.20;98.40;;;;;;5054491;28;20045;-83
2023/10/14 08:28:05;;;;;;;15.55;9.43;;;19.30;98.00;;;;;;5052593;28;20024;-83
2023/10/14 08:30:40;;;;;;;16.52;9.50;;;19.40;99.90;;;;;;5051192;28;20021;-83
2023/10/14 08:33:09;;;;;;;15.15;9.80;;;19.50;99.20;;;;;;5062822;28;20489;-83
2023/10/14 08:35:36;;;;;;;16.92;9.20;;;19.60;99.90;;;;;;5039427;28;20017;-78
2023/10/14 08:38:02;;;;;;;14.05;8.50;;;19.70;99.70;;;;;;5052866;28;20016;-83
2023/10/14 08:40:29;;;;;;;16.63;9.55;;;19.70;93.50;;;;;;5051208;28;20087;-83
2023/10/14 08:43:05;;;;;;;16.88;9.57;;;19.70;92.90;;;;;;5052391;28;20025;-77
2023/10/14 08:45:41;;;;;;;20.08;10.25;;;19.80;93.10;;;;;;5048740;28;20057;-77
2023/10/14 08:48:11;;;;;;;15.40;9.57;;;19.90;94.70;;;;;;5048605;28;20056;-77
2023/10/14 08:50:39;;;;;;;16.33;9.35;;;19.90;92.70;;;;;;5058418;28;20025;-85
2023/10/14 08:53:15;;;;;;;14.05;8.95;;;20.00;90.60;;;;;;5053236;28;20021;-78
2023/10/14 08:55:46;;;;;;;16.33;9.57;;;20.10;91.30;;;;;;5051104;28;20017;-78
2023/10/14 08:58:13;;;;;;;13.13;8.95;;;20.20;89.20;;;;;;5050515;28;20481;-77
2023/10/14 09:00:40;;;;;;;17.23;9.57;;;20.20;89.10;;;;;;5052190;28;20120;-78
2023/10/14 09:03:09;;;;;;;13.05;8.27;;;20.30;89.90;;;;;;5050761;28;20071;-84
2023/10/14 09:05:44;;;;;;;20.10;11.07;;;20.30;90.80;;;;;;5056782;28;20008;-80
2023/10/14 09:08:17;;;;;;;16.30;9.63;;;20.30;88.10;;;;;;5053338;28;20382;-77
2023/10/14 09:10:44;;;;;;;15.73;10.85;;;20.40;91.60;;;;;;5054698;28;20050;-84
2023/10/14 09:13:20;;;;;;;16.55;9.93;;;20.50;90.90;;;;;;5064689;28;20028;-78
2023/10/14 09:15:46;;;;;;;16.38;10.27;;;20.50;86.70;;;;;;5055993;28;20382;-78
2023/10/14 09:18:17;;;;;;;12.07;9.20;;;20.50;85.80;;;;;;5053558;28;20028;-78
2023/10/14 09:20:44;;;;;;;20.08;9.98;;;20.50;84.50;;;;;;5054317;28;20032;-84
2023/10/14 09:23:44;;;;;;;15.48;9.68;;;20.60;88.00;;;;;;5056209;28;20033;-78
2023/10/14 09:26:08;;;;;;;14.18;8.88;;;20.70;86.90;;;;;;5045077;28;20536;-84
2023/10/14 09:28:40;;;;;;;16.73;9.70;;;20.80;85.20;;;;;;5054423;28;20116;-84
2023/10/14 09:31:08;;;;;;;15.85;9.10;;;20.80;84.80;;;;;;5054575;28;20036;-84
2023/10/14 09:33:42;;;;;;;13.38;8.48;;;20.90;83.90;;;;;;5055575;28;20467;-85
2023/10/14 09:36:18;;;;;;;11.10;8.18;;;21.00;83.60;;;;;;5065030;28;20032;-78
2023/10/14 09:38:48;;;;;;;12.27;8.48;;;21.00;80.00;;;;;;5056112;28;20111;-78
2023/10/14 09:41:15;;;;;;;17.90;9.48;;;21.10;79.70;;;;;;5054089;28;20125;-83
2023/10/14 09:43:48;;;;;;;16.58;8.57;;;21.20;80.30;;;;;;5042045;28;20486;-83
2023/10/14 09:46:17;;;;;;;15.27;8.75;;;21.10;77.20;;;;;;5055179;28;20029;-80
2023/10/14 09:48:46;;;;;;;11.52;8.25;;;21.10;77.60;;;;;;5059400;28;20025;-86
2023/10/14 09:51:16;;;;;;;10.63;8.23;;;21.20;78.50;;;;;;5053972;28;20532;-84
2023/10/14 09:53:46;;;;;;;16.27;8.75;;;21.20;76.90;;;;;;5055345;28;20060;-84
2023/10/14 09:56:12;;;;;;;14.30;7.88;;;21.30;76.80;;;;;;5054506;28;20017;-84
2023/10/14 09:58:43;;;;;;;18.52;9.02;;;21.30;75.50;;;;;;5065394;28;20040;-78
2023/10/14 10:01:17;;;;;;;12.98;8.32;;;21.30;74.90;;;;;;5053921;28;20025;-78
2023/10/14 10:03:48;;;;;;;12.45;7.97;;;21.30;75.60;;;;;;5053961;28;20021;-84
2023/10/14 10:06:17;;;;;;;14.98;8.65;;;21.40;76.90;;;;;;5056681;28;20060;-79
2023/10/14 10:08:42;;;;;;;11.35;8.15;;;21.50;76.20;;;;;;5053786;28;20052;-78
2023/10/14 10:11:10;;;;;;;12.52;8.10;;;21.50;76.30;;;;;;5054672;28;20025;-84
2023/10/14 10:13:38;;;;;;;13.45;8.45;;;21.60;75.20;;;;;;5055020;28;20025;-77
2023/10/14 10:16:04;;;;;;;15.88;8.00;;;21.70;76.70;;;;;;5072261;28;20018;-78
2023/10/14 10:18:56;;;;;;;10.27;7.93;;;21.80;75.50;;;;;;5048278;28;20056;-84
2023/10/14 10:21:25;;;;;;;12.07;7.80;;;21.90;75.20;;;;;;5043428;28;20061;-79
2023/10/14 10:23:57;;;;;;;17.27;7.82;;;22.00;73.80;;;;;;5055290;28;20378;-82
2023/10/14 10:26:24;;;;;;;15.98;8.35;;;22.00;72.20;;;;;;5053811;28;20025;-84
2023/10/14 10:28:49;;;;;;;14.18;7.53;;;22.00;70.40;;;;;;5053161;28;20033;-86
2023/10/14 10:31:21;;;;;;;197.95;177.07;;;22.00;71.60;;;;;;5053348;28;20386;-86
2023/10/14 10:34:01;;;;;;;14.05;7.15;;;22.00;70.30;;;;;;5052833;28;20013;-84
2023/10/14 10:36:30;;;;;;;16.02;8.57;;;22.00;70.00;;;;;;5053054;28;20025;-77
2023/10/14 10:39:15;;;;;;;12.57;7.65;;;22.10;71.90;;;;;;5056772;28;20021;-78
2023/10/14 10:41:41;;;;;;;17.73;9.13;;;22.20;69.80;;;;;;5055507;28;20036;-78
2023/10/14 10:44:09;;;;;;;16.60;8.45;;;22.30;68.50;;;;;;5054489;28;20028;-84
2023/10/14 10:46:45;;;;;;;13.63;7.95;;;22.40;69.50;;;;;;5053161;28;20052;-84
2023/10/14 10:49:13;;;;;;;13.15;8.15;;;22.50;68.30;;;;;;5053066;28;20074;-78
2023/10/14 10:51:50;;;;;;;11.65;7.05;;;22.50;68.40;;;;;;5053145;28;20020;-84
2023/10/14 10:54:16;;;;;;;22.73;8.05;;;22.60;69.10;;;;;;5052655;28;20033;-84
2023/10/14 10:56:43;;;;;;;12.23;7.18;;;22.60;69.10;;;;;;5053348;28;20025;-78
2023/10/14 10:59:09;;;;;;;11.15;7.35;;;22.70;68.30;;;;;;5052404;28;20029;-78
2023/10/14 11:01:35;;;;;;;16.35;7.82;;;22.70;67.80;;;;;;5054042;28;20040;-85
2023/10/14 11:04:08;;;;;;;17.80;8.00;;;22.80;68.40;;;;;;5051945;28;20045;-83
2023/10/14 11:06:35;;;;;;;12.15;7.57;;;22.80;68.50;;;;;;5041886;28;20025;-84
2023/10/14 11:09:01;;;;;;;14.27;7.75;;;22.70;68.20;;;;;;5054074;28;20025;-84
2023/10/14 11:11:32;;;;;;;14.63;8.15;;;22.60;68.80;;;;;;5065053;28;20075;-78
2023/10/14 11:14:00;;;;;;;16.77;6.95;;;22.40;68.10;;;;;;5052591;28;20021;-78
2023/10/14 11:16:29;;;;;;;11.32;7.25;;;22.50;68.00;;;;;;5053754;28;20032;-85
2023/10/14 11:18:55;;;;;;;11.80;7.05;;;22.50;67.60;;;;;;5058916;28;20029;-84
2023/10/14 11:21:21;;;;;;;13.15;7.53;;;22.40;66.70;;;;;;5052264;28;20136;-85
2023/10/14 11:23:52;;;;;;;13.60;7.20;;;22.40;67.80;;;;;;5052000;28;20028;-85
2023/10/14 11:26:19;;;;;;;15.27;6.55;;;22.30;68.00;;;;;;5052206;28;20017;-84
2023/10/14 11:28:45;;;;;;;17.65;7.20;;;22.20;68.00;;;;;;5064142;28;20116;-85
2023/10/14 11:31:14;;;;;;;13.48;7.60;;;22.10;68.00;;;;;;5053378;28;20053;-84
2023/10/14 11:33:45;;;;;;;18.25;7.43;;;22.00;68.80;;;;;;5052020;28;20017;-78
2023/10/14 11:36:17;;;;;;;10.95;7.25;;;22.00;68.30;;;;;;5055272;28;20012;-78
2023/10/14 11:38:44;;;;;;;11.05;6.97;;;22.00;70.30;;;;;;5052461;28;20395;-79
2023/10/14 11:41:12;;;;;;;11.35;6.75;;;21.90;69.90;;;;;;5051959;28;20036;-78
2023/10/14 11:43:42;;;;;;;12.27;6.70;;;21.90;68.50;;;;;;5050393;28;20021;-85
2023/10/14 11:46:08;;;;;;;12.40;6.47;;;21.80;67.70;;;;;;5061773;28;20020;-83
2023/10/14 11:48:34;;;;;;;12.90;6.70;;;21.90;68.30;;;;;;5052635;28;20475;-81
2023/10/14 11:51:04;;;;;;;10.77;6.45;;;21.80;69.60;;;;;;5051106;28;20394;-86
2023/10/14 11:53:32;;;;;;;14.23;7.28;;;21.80;68.50;;;;;;5051087;28;20037;-80
2023/10/14 11:56:03;;;;;;;12.20;6.82;;;21.80;69.00;;;;;;5051534;28;20481;-87
2023/10/14 11:58:31;;;;;;;13.43;6.68;;;21.80;68.00;;;;;;5052124;28;20043;-82
2023/10/14 12:00:58;;;;;;;13.10;6.25;;;21.70;69.20;;;;;;5050710;28;20064;-86
2023/10/14 12:03:27;;;;;;;12.38;6.70;;;21.60;68.30;;;;;;5055847;28;20016;-83
2023/10/14 12:05:57;;;;;;;16.38;7.22;;;21.70;68.50;;;;;;5054340;28;20033;-88
2023/10/14 12:08:27;;;;;;;11.88;6.78;;;21.60;69.50;;;;;;5050331;28;20104;-82
2023/10/14 12:10:54;;;;;;;15.00;7.28;;;21.70;70.60;;;;;;5044227;28;20038;-82
2023/10/14 12:13:20;;;;;;;12.88;7.28;;;21.60;69.90;;;;;;5031335;28;20041;-88
2023/10/14 12:15:47;;;;;;;11.48;7.45;;;21.60;70.40;;;;;;5044320;28;20095;-89
2023/10/14 12:18:15;;;;;;;12.20;6.75;;;21.60;71.20;;;;;;5049403;28;20078;-81
2023/10/14 12:20:45;;;;;;;14.23;7.78;;;21.60;71.70;;;;;;5050075;28;20116;-84
2023/10/14 12:23:18;;;;;;;17.35;8.13;;;21.60;73.00;;;;;;5051743;28;20021;-80
2023/10/14 12:25:48;;;;;;;14.27;7.45;;;21.60;72.70;;;;;;5051922;28;20013;-80
2023/10/14 12:28:24;;;;;;;11.65;7.00;;;21.60;73.60;;;;;;5051481;28;20375;-79
2023/10/14 12:30:56;;;;;;;18.35;8.00;;;21.60;74.50;;;;;;5051551;28;20025;-82
2023/10/14 12:33:24;;;;;;;14.10;7.53;;;21.50;74.10;;;;;;5043748;28;20028;-80
2023/10/14 12:35:53;;;;;;;14.82;7.60;;;21.40;74.60;;;;;;5051837;28;20030;-79
2023/10/14 12:38:20;;;;;;;20.25;7.80;;;21.40;74.60;;;;;;5051159;28;20111;-79
2023/10/14 12:40:49;;;;;;;13.95;7.60;;;21.40;75.10;;;;;;5031850;28;20395;-79
2023/10/14 12:43:27;;;;;;;11.73;7.85;;;21.30;77.00;;;;;;5046439;28;20029;-79
2023/10/14 12:46:19;;;;;;;18.42;9.40;;;21.30;76.40;;;;;;5050478;28;20013;-80
2023/10/14 12:48:46;;;;;;;15.90;8.60;;;21.20;76.10;;;;;;5054333;28;20041;-81
2023/10/14 12:51:30;;;;;;;12.38;7.70;;;21.10;78.80;;;;;;5053835;28;20029;-84
2023/10/14 12:53:57;;;;;;;11.05;8.18;;;21.00;78.00;;;;;;5051696;28;20025;-84
2023/10/14 12:56:26;;;;;;;14.52;7.50;;;21.00;75.90;;;;;;5045402;28;20638;-85
2023/10/14 12:58:53;;;;;;;11.70;7.53;;;20.90;74.80;;;;;;5052811;28;20032;-78
2023/10/14 13:01:22;;;;;;;10.70;7.50;;;20.80;73.60;;;;;;5054393;28;20454;-85
2023/10/14 13:03:53;;;;;;;16.35;7.88;;;20.90;73.70;;;;;;5048840;28;20091;-85
2023/10/14 13:06:23;;;;;;;17.85;8.30;;;20.80;74.30;;;;;;5047282;28;20021;-85
2023/10/14 13:09:08;;;;;;;13.70;7.78;;;20.80;74.90;;;;;;5050459;28;20043;-85
2023/10/14 13:11:34;;;;;;;10.98;7.15;;;20.80;76.40;;;;;;5050754;28;20033;-85
2023/10/14 13:14:00;;;;;;;10.45;6.75;;;20.70;74.70;;;;;;5053080;28;20066;-86
2023/10/14 13:16:27;;;;;;;15.43;8.27;;;20.70;75.10;;;;;;5053478;28;20348;-85
2023/10/14 13:18:58;;;;;;;10.95;7.07;;;20.70;74.80;;;;;;5048425;28;20049;-85
2023/10/14 13:21:30;;;;;;;16.70;7.35;;;20.70;74.50;;;;;;5047156;28;20033;-86
2023/10/14 13:23:57;;;;;;;13.40;6.97;;;20.60;75.20;;;;;;5050206;28;20532;-86